createdAt,value
2018-04-23T00:04:00.546Z,7.28
2018-04-23T00:08:33.729Z,7.70
2018-04-23T00:13:07.686Z,6.75
2018-04-23T00:17:40.882Z,7.18
2018-04-23T00:22:14.070Z,7.43
2018-04-23T00:26:47.435Z,7.95
2018-04-23T00:31:20.596Z,7.32
2018-04-23T00:35:53.783Z,6.97
2018-04-23T00:40:27.735Z,7.35
2018-04-23T00:45:00.926Z,6.80
2018-04-23T00:49:34.114Z,7.45
2018-04-23T00:54:08.073Z,7.90
2018-04-23T00:58:41.269Z,7.43
2018-04-23T01:03:14.430Z,7.65
2018-04-23T01:07:47.618Z,7.50
2018-04-23T01:12:20.802Z,7.32
2018-04-23T01:16:53.986Z,8.02
2018-04-23T01:21:27.171Z,7.10
2018-04-23T01:26:01.121Z,7.90
2018-04-23T01:30:34.339Z,7.62
2018-04-23T01:35:07.525Z,7.55
2018-04-23T01:39:40.715Z,7.55
2018-04-23T01:44:14.689Z,7.90
2018-04-23T01:48:47.878Z,7.68
2018-04-23T01:53:21.067Z,7.87
2018-04-23T01:57:54.259Z,7.70
2018-04-23T02:02:28.209Z,8.18
2018-04-23T02:07:01.394Z,7.93
2018-04-23T02:11:35.354Z,7.32
2018-04-23T02:16:08.610Z,7.97
2018-04-23T02:20:41.771Z,7.80
2018-04-23T02:25:14.953Z,8.15
2018-04-23T02:29:48.138Z,8.13
2018-04-23T02:34:22.091Z,8.02
2018-04-23T02:38:55.302Z,7.50
2018-04-23T02:43:28.470Z,7.80
2018-04-23T02:48:02.513Z,8.43
2018-04-23T02:52:36.882Z,8.10
2018-04-23T02:57:11.033Z,8.07
2018-04-23T03:01:44.234Z,8.00
2018-04-23T03:06:17.397Z,8.27
2018-04-23T03:10:50.813Z,8.02
2018-04-23T03:15:23.977Z,8.00
2018-04-23T03:19:57.169Z,7.87
2018-04-23T03:24:30.410Z,7.70
2018-04-23T03:29:04.375Z,8.68
2018-04-23T03:33:37.539Z,8.07
2018-04-23T03:38:11.495Z,7.80
2018-04-23T03:42:44.658Z,8.32
2018-04-23T03:47:17.855Z,8.88
2018-04-23T03:51:51.052Z,8.38
2018-04-23T03:56:24.221Z,7.97
2018-04-23T04:00:57.699Z,8.23
2018-04-23T04:05:30.966Z,8.35
2018-04-23T04:10:04.162Z,9.32
2018-04-23T04:14:49.262Z,9.85
2018-04-23T04:19:22.434Z,11.88
2018-04-23T04:23:57.298Z,12.13
2018-04-23T04:28:30.610Z,11.57
2018-04-23T04:33:03.803Z,13.90
2018-04-23T04:37:37.022Z,14.85
2018-04-23T04:42:10.211Z,15.35
2018-04-23T04:46:43.380Z,14.60
2018-04-23T04:51:17.347Z,15.05
2018-04-23T04:55:50.550Z,14.40
2018-04-23T05:00:23.740Z,14.93
2018-04-23T05:04:56.940Z,15.18
2018-04-23T05:09:30.893Z,14.77
2018-04-23T05:14:04.065Z,14.93
2018-04-23T05:18:38.023Z,14.68
2018-04-23T05:23:11.261Z,15.32
2018-04-23T05:27:44.577Z,16.60
2018-04-23T05:32:18.616Z,16.73
2018-04-23T05:36:52.574Z,15.70
2018-04-23T05:41:25.784Z,15.25
2018-04-23T05:45:58.979Z,14.27
2018-04-23T05:50:32.186Z,14.63
2018-04-23T05:55:05.421Z,15.05
2018-04-23T05:59:38.582Z,13.15
2018-04-23T06:04:12.543Z,15.48
2018-04-23T06:08:45.798Z,13.77
2018-04-23T06:13:18.997Z,12.23
2018-04-23T06:17:52.185Z,14.13
2018-04-23T06:22:25.371Z,13.70
2018-04-23T06:26:58.764Z,14.43
2018-04-23T06:31:31.921Z,14.38
2018-04-23T06:36:05.117Z,13.32
2018-04-23T06:40:38.307Z,14.10
2018-04-23T06:45:11.498Z,13.05
2018-04-23T06:49:44.690Z,13.65
2018-04-23T06:54:17.903Z,13.52
2018-04-23T06:58:51.090Z,13.77
2018-04-23T07:03:25.041Z,12.00
2018-04-23T07:07:58.238Z,11.95
2018-04-23T07:12:31.517Z,10.07
2018-04-23T07:17:06.190Z,10.23
2018-04-23T07:21:39.378Z,9.00
2018-04-23T07:26:13.333Z,9.48
2018-04-23T07:30:46.517Z,9.30
2018-04-23T07:35:20.470Z,9.02
2018-04-23T07:39:53.655Z,8.68
2018-04-23T07:44:26.848Z,7.85
2018-04-23T07:49:00.803Z,8.75
2018-04-23T07:53:33.993Z,8.07
2018-04-23T07:58:07.316Z,7.90
2018-04-23T08:02:40.507Z,10.18
2018-04-23T08:07:13.868Z,7.62
2018-04-23T08:11:47.058Z,7.50
2018-04-23T08:16:20.258Z,7.37
2018-04-23T08:20:53.574Z,7.30
2018-04-23T08:25:26.773Z,7.60
2018-04-23T08:29:59.987Z,7.45
2018-04-23T08:34:33.169Z,7.60
2018-04-23T08:39:06.378Z,7.32
2018-04-23T08:43:39.586Z,6.90
2018-04-23T08:48:12.807Z,6.70
2018-04-23T08:52:45.961Z,7.40
2018-04-23T08:57:19.925Z,6.95
2018-04-23T09:01:53.197Z,6.50
2018-04-23T09:06:27.155Z,6.70
2018-04-23T09:11:00.314Z,6.65
2018-04-23T09:15:33.551Z,9.07
2018-04-23T09:20:06.739Z,8.73
2018-04-23T09:24:40.693Z,8.70
2018-04-23T09:29:13.889Z,8.27
2018-04-23T09:33:47.097Z,8.02
2018-04-23T09:38:20.263Z,8.30
2018-04-23T09:42:54.213Z,8.07
2018-04-23T09:47:28.169Z,7.85
2018-04-23T09:52:02.897Z,7.25
2018-04-23T09:56:36.185Z,8.35
2018-04-23T10:01:15.949Z,7.28
2018-04-23T10:05:49.875Z,7.40
2018-04-23T10:10:23.838Z,7.10
2018-04-23T10:14:57.005Z,7.57
2018-04-23T10:19:30.957Z,7.35
2018-04-23T10:24:04.150Z,6.90
2018-04-23T10:28:37.404Z,6.93
2018-04-23T10:33:10.581Z,6.97
2018-04-23T10:37:43.773Z,6.70
2018-04-23T10:42:16.972Z,7.15
2018-04-23T10:46:50.170Z,7.20
2018-04-23T10:51:24.097Z,6.65
2018-04-23T10:55:57.407Z,7.10
2018-04-23T11:00:30.601Z,7.20
2018-04-23T11:05:04.560Z,7.20
2018-04-23T11:09:37.763Z,6.35
2018-04-23T11:14:11.121Z,6.65
2018-04-23T11:18:44.285Z,6.32
2018-04-23T11:23:17.470Z,7.05
2018-04-23T11:27:50.665Z,7.68
2018-04-23T11:32:24.675Z,7.37
2018-04-23T11:36:57.831Z,7.72
2018-04-23T11:41:31.001Z,7.85
2018-04-23T11:46:04.962Z,7.72
2018-04-23T11:50:38.452Z,7.65
2018-04-23T11:55:11.738Z,7.75
2018-04-23T11:59:45.660Z,7.85
2018-04-23T12:04:19.997Z,7.70
2018-04-23T12:08:53.946Z,7.43
2018-04-23T12:13:27.182Z,7.80
2018-04-23T12:18:00.342Z,8.07
2018-04-23T12:22:34.359Z,8.43
2018-04-23T12:27:08.330Z,8.88
2018-04-23T12:31:41.493Z,7.78
2018-04-23T12:36:15.453Z,7.47
2018-04-23T12:40:48.617Z,7.43
2018-04-23T12:45:22.574Z,6.72
2018-04-23T12:49:55.763Z,6.75
2018-04-23T12:54:29.715Z,6.90
2018-04-23T12:59:02.907Z,6.78
2018-04-23T13:03:36.093Z,6.15
2018-04-23T13:08:10.041Z,5.47
2018-04-23T13:12:43.217Z,5.97
2018-04-23T13:17:17.166Z,5.70
2018-04-23T13:21:50.365Z,5.53
2018-04-23T13:26:23.526Z,4.78
2018-04-23T13:30:56.893Z,4.57
2018-04-23T13:35:30.066Z,6.15
2018-04-23T13:40:04.349Z,4.40
2018-04-23T13:44:37.678Z,4.90
2018-04-23T13:49:10.867Z,5.45
2018-04-23T13:53:44.059Z,5.50
2018-04-23T13:58:17.374Z,5.22
2018-04-23T14:02:50.534Z,5.90
2018-04-23T14:07:23.749Z,5.28
2018-04-23T14:11:57.699Z,5.28
2018-04-23T14:16:30.884Z,5.40
2018-04-23T14:21:04.849Z,5.05
2018-04-23T14:25:38.015Z,6.30
2018-04-23T14:30:12.306Z,5.75
2018-04-23T14:34:45.467Z,5.57
2018-04-23T14:39:18.654Z,6.03
2018-04-23T14:43:52.913Z,5.55
2018-04-23T14:48:26.139Z,5.82
2018-04-23T14:52:59.342Z,7.15
2018-04-23T14:57:32.509Z,5.90
2018-04-23T15:02:06.462Z,6.28
2018-04-23T15:06:39.650Z,5.53
2018-04-23T15:11:12.933Z,5.93
2018-04-23T15:15:46.895Z,4.97
2018-04-23T15:20:20.086Z,5.28
2018-04-23T15:24:53.361Z,5.12
2018-04-23T15:29:26.555Z,4.80
2018-04-23T15:33:59.715Z,4.78
2018-04-23T15:38:33.221Z,4.62
2018-04-23T15:43:06.406Z,5.00
2018-04-23T15:47:40.430Z,4.50
2018-04-23T15:52:14.389Z,4.37
2018-04-23T15:56:47.559Z,4.68
2018-04-23T16:01:21.514Z,5.15
2018-04-23T16:05:54.704Z,4.75
2018-04-23T16:10:28.711Z,5.32
2018-04-23T16:15:01.927Z,4.93
2018-04-23T16:19:35.885Z,4.95
2018-04-23T16:24:09.075Z,4.75
2018-04-23T16:28:42.278Z,5.03
2018-04-23T16:33:15.482Z,4.97
2018-04-23T16:37:49.408Z,5.37
2018-04-23T16:42:22.635Z,5.90
2018-04-23T16:46:55.822Z,6.12
2018-04-23T16:51:29.797Z,5.45
2018-04-23T16:56:02.961Z,5.32
2018-04-23T17:00:36.157Z,5.20
2018-04-23T17:05:10.166Z,5.50
2018-04-23T17:09:43.386Z,6.12
2018-04-23T17:14:17.333Z,5.25
2018-04-23T17:18:50.494Z,5.93
2018-04-23T17:23:25.194Z,6.07
2018-04-23T17:27:58.390Z,6.18
2018-04-23T17:32:31.578Z,5.82
2018-04-23T17:37:04.910Z,6.25
2018-04-23T17:41:38.091Z,6.70
2018-04-23T17:46:12.200Z,6.20
2018-04-23T17:50:45.368Z,6.47
2018-04-23T17:55:18.629Z,6.05
2018-04-23T17:59:51.926Z,6.07
2018-04-23T18:04:25.906Z,6.07
2018-04-23T18:08:59.079Z,6.05
2018-04-23T18:13:32.272Z,6.15
2018-04-23T18:18:06.259Z,6.18
2018-04-23T18:22:39.418Z,6.12
2018-04-23T18:27:12.603Z,6.20
2018-04-23T18:31:46.573Z,5.95
2018-04-23T18:36:19.759Z,5.78
2018-04-23T18:40:52.941Z,6.37
2018-04-23T18:45:26.977Z,5.72
2018-04-23T18:50:01.127Z,6.15
2018-04-23T18:54:34.573Z,5.45
2018-04-23T18:59:07.761Z,5.57
2018-04-23T19:03:41.122Z,5.87
2018-04-23T19:08:14.333Z,5.90
2018-04-23T19:12:47.585Z,5.60
2018-04-23T19:17:20.751Z,5.90
2018-04-23T19:21:54.747Z,5.93
2018-04-23T19:26:27.929Z,7.12
2018-04-23T19:31:01.130Z,7.65
2018-04-23T19:35:34.290Z,7.85
2018-04-23T19:40:08.248Z,7.57
2018-04-23T19:44:41.435Z,8.18
2018-04-23T19:49:14.622Z,7.18
2018-04-23T19:53:48.584Z,6.32
2018-04-23T19:58:21.743Z,7.97
2018-04-23T20:02:54.931Z,10.20
2018-04-23T20:07:29.061Z,9.25
2018-04-23T20:12:03.058Z,12.43
2018-04-23T20:16:36.235Z,11.30
2018-04-23T20:21:09.455Z,8.97
2018-04-23T20:25:42.642Z,7.50
2018-04-23T20:30:16.677Z,11.53
2018-04-23T20:34:49.862Z,12.13
2018-04-23T20:39:24.143Z,8.27
2018-04-23T20:43:57.483Z,7.67
2018-04-23T20:48:30.642Z,7.97
2018-04-23T20:53:03.990Z,7.57
2018-04-23T20:57:38.325Z,8.90
2018-04-23T21:02:11.521Z,7.30
2018-04-23T21:06:44.678Z,7.17
2018-04-23T21:11:18.635Z,6.87
2018-04-23T21:15:52.333Z,6.47
2018-04-23T21:20:25.649Z,6.53
2018-04-23T21:24:58.837Z,7.07
2018-04-23T21:29:32.789Z,7.37
2018-04-23T21:34:05.987Z,8.23
2018-04-23T21:38:39.174Z,6.37
2018-04-23T21:43:13.118Z,6.23
2018-04-23T21:47:46.301Z,7.87
2018-04-23T21:52:20.253Z,9.20
2018-04-23T21:56:53.443Z,7.53
2018-04-23T22:01:26.652Z,6.97
2018-04-23T22:05:59.854Z,6.80
2018-04-23T22:10:33.017Z,6.67
2018-04-23T22:15:06.198Z,6.97
2018-04-23T22:19:39.382Z,7.00
2018-04-23T22:24:12.534Z,6.83
2018-04-23T22:28:45.718Z,6.57
2018-04-23T22:33:18.904Z,6.10
2018-04-23T22:37:52.178Z,7.23
2018-04-23T22:42:26.106Z,6.90
2018-04-23T22:46:59.325Z,7.50
2018-04-23T22:51:33.270Z,6.97
2018-04-23T22:56:06.507Z,7.00
2018-04-23T23:00:39.698Z,7.30
2018-04-23T23:05:12.878Z,6.47
2018-04-23T23:09:46.073Z,6.87
2018-04-23T23:14:20.002Z,7.10
2018-04-23T23:18:53.370Z,6.80
2018-04-23T23:23:26.551Z,6.73
2018-04-23T23:27:59.743Z,6.47
2018-04-23T23:32:33.012Z,6.73
2018-04-23T23:37:06.955Z,7.53
2018-04-23T23:41:40.901Z,7.30
2018-04-23T23:46:14.091Z,7.17
2018-04-23T23:50:47.304Z,8.40
2018-04-23T23:55:20.490Z,8.73
2018-04-23T23:59:54.437Z,8.63
